x

Santa Monica Basin - 33nm Wsw Of Santa Monica, Ca (46025) Weather Station

7:50pm - Wed 4th Mar 2015 All times are PST. -8 hours from GMT.

  • Wind
    11mph, 13mph gusts
  • Sea Temp 62°f
  • 空気 Temp 61°f
  • Sea Pressure 1020.4mb
  • Santa Monica Basin - 33nm Wsw Of Santa Monica, Ca
  • Santa Monica Basin - 33nm Wsw Of Santa Monica, Ca

More Historic Weather Station data

Upgrade to MSW Pro to gain access to the past 30 days of data for over 8000 Wavebouys and Weather Stations around the globe.

Join Pro

Comparision Forecast

View Surf forecast
   
Wed 03/04 7:50pm  -   -   -  11 13 mph 1020.4mb 62f 61f
6:50pm 3.5ft 16s 8s 11 13 mph 1019.8mb 62f 60f
5:50pm 2.5ft 16s 7s 11
mph
1019.5mb 62f 62f
4:50pm 3ft 16s 8s 9 11 mph 1018.9mb 63f 62f
3:50pm 3ft 16s 8s 9 11 mph 1018.7mb 64f 62f
2:50pm 2.5ft 16s 7s 4
mph
1018.9mb 65f 62f
1:50pm 3.5ft 16s 9s 2 4 mph 1018.9mb 65f 62f
12:50pm 3.5ft 16s 8s 2 4 mph 1019.3mb 64f 62f
11:50am 3.5ft 16s 8s 2 4 mph 1019.4mb 63f 60f
10:50am 3.5ft 17s 8s 2
mph
1019.4mb 62f 60f
9:50am 3.5ft 17s 7s 7
mph
1019mb 62f 59f
8:50am 3.5ft 17s 7s 9
mph
1018.6mb 61f 59f
7:50am 3.5ft 17s 6s 7 9 mph 1017.5mb 61f 60f
6:50am 3.5ft 16s 7s 7 9 mph 1016.6mb 61f 59f
5:50am 3.5ft 16s 7s 7
mph
1015.9mb 61f 59f
4:50am 3.5ft 17s 7s 7
mph
1015.4mb 61f 59f
3:50am 3.5ft 17s 7s 7 9 mph 1014.9mb 61f 58f
2:50am 3.5ft 17s 7s 4 7 mph 1015mb 61f 59f
1:50am 3.5ft 17s 7s 4 7 mph 1015mb 61f 59f
12:50am 3ft 17s 7s 2
mph
1014.9mb 62f 59f
Tue 03/03 11:50pm 3.5ft 17s 7s 2
mph
1014.6mb 61f 59f
10:50pm 3ft 17s 6s  -  2 mph 1014.5mb 62f 58f
9:50pm 3ft 19s 6s 2 4 mph 1014.3mb 62f 58f
8:50pm 3.5ft 17s 6s  -  2 mph 1013.9mb 62f 59f
7:50pm 3.5ft 17s 6s 2 4 mph 1013.4mb 62f 59f
6:50pm 2.5ft 17s 5s 11 13 mph 1012.7mb 62f 60f
5:50pm 3ft 19s 5s 13 16 mph 1012.5mb 62f 59f
4:50pm 3ft 19s 5s 16 18 mph 1012.4mb 62f 59f
3:50pm 3ft 19s 6s 13 18 mph 1012.8mb 62f 58f
2:50pm 2.5ft 19s 7s 13 16 mph 1013.3mb 62f 58f
1:50pm 2.5ft 19s 7s 11 13 mph 1013.7mb 62f 58f
12:50pm 2.5ft 19s 6s 7 9 mph 1014.4mb 62f 57f
11:50am 2.5ft 19s 7s 4 7 mph 1014.9mb 62f 57f
10:50am 2.5ft 19s 6s 4 7 mph 1015.4mb 62f 57f
9:50am 2.5ft 19s 6s 7 9 mph 1015.3mb 62f 57f
8:50am 2.5ft 19s 5s 7 9 mph 1015.2mb 62f 57f
7:50am 2.5ft 19s 5s 9 13 mph 1014.5mb 62f 57f
6:50am 2.5ft 10s 5s 11 13 mph 1013.8mb 62f 56f
5:50am 2.5ft 4s 4s 11 13 mph 1013.6mb 62f 56f
4:50am 2.5ft 19s 5s 11 13 mph 1013.6mb 62f 56f
3:50am 2.5ft 4s 4s 16 18 mph 1013.3mb 62f 57f
2:50am 2.5ft 4s 4s 13 16 mph 1013.7mb 62f 56f
1:50am 2.5ft 14s 4s 18 20 mph 1014.2mb 62f 57f
12:50am 2ft 14s 6s 18 20 mph 1014.3mb 62f 56f
Mon 03/02 11:50pm 2ft 21s 7s 7 9 mph 1014.6mb 62f 58f
10:50pm 2ft 15s 7s 4 7 mph 1014.8mb 62f 57f
9:50pm 2ft 11s 6s 7 9 mph 1014.6mb 62f 57f
8:50pm 2ft 12s 6s 4 7 mph 1014.4mb 62f 57f
7:50pm 2.5ft 15s 5s 4 7 mph 1013.9mb 62f 57f
6:50pm 2.5ft 15s 5s 2
mph
1013.7mb 62f 56f
5:50pm 2.5ft 12s 5s 4 7 mph 1013.5mb 62f 57f
4:50pm 2.5ft 15s 6s 7 9 mph 1013.2mb 62f 57f
3:50pm 2.5ft 15s 6s 7 9 mph 1012.9mb 63f 58f
2:50pm 2.5ft 11s 7s 2
mph
1012.8mb 63f 56f
1:50pm 2.5ft 10s 6s 2 7 mph 1012.8mb 63f 57f
12:50pm 2.5ft 12s 6s 4 7 mph 1013.2mb 63f 57f
11:50am 2.5ft 12s 7s 7 9 mph 1013.7mb 62f 56f
10:50am 2.5ft 11s 6s 7 9 mph 1013.6mb 62f 56f
9:50am 2.5ft 10s 6s 2 4 mph 1013.5mb 62f 57f
8:50am 2.5ft 8s 5s 7 9 mph 1013.2mb 62f 56f
7:50am 2.5ft 12s 6s 11 13 mph 1012.8mb 62f 54f
6:50am 2.5ft 10s 6s 4 7 mph 1012.5mb 62f 55f
5:50am 2.5ft 15s 6s 4 7 mph 1012.2mb 62f 55f
4:50am 2.5ft 13s 5s 7 9 mph 1012.1mb 62f 55f
3:50am 2.5ft 13s 6s 9 11 mph 1012.1mb 62f 55f
2:50am 3ft 12s 6s 4 7 mph 1012.5mb 62f 56f
1:50am 2.5ft 11s 6s 7 9 mph 1013.2mb 62f 56f
12:50am 2.5ft 12s 6s 4 7 mph 1013.6mb 62f 56f
Sun 03/01 11:50pm 2.5ft 13s 6s 4 7 mph 1013.8mb 62f 56f
10:50pm 2.5ft 13s 5s 9 11 mph 1013.9mb 62f 56f
9:50pm 2.5ft 12s 6s 11 13 mph 1014.1mb 62f 55f
8:50pm 2.5ft 13s 6s 11 13 mph 1014.1mb 62f 54f
7:50pm 2.5ft 13s 5s 9 11 mph 1013.7mb 62f 56f
6:50pm 2.5ft 13s 6s 9 11 mph 1013.3mb 62f 57f
5:50pm 2.5ft 13s 7s 2 4 mph 1012.9mb 62f 58f
4:50pm 2.5ft 12s 7s 2 4 mph 1012.6mb 62f 60f
3:50pm 2.5ft 14s 7s 7 9 mph 1012.5mb 62f 59f
2:50pm 2.5ft 14s 7s 7 9 mph 1012.4mb 62f 58f
1:50pm 2.5ft 13s 6s 9
mph
1012.7mb 62f 58f
12:50pm 2.5ft 14s 6s 7 9 mph 1013.4mb 62f 58f
11:50am 2.5ft 14s 5s 9 11 mph 1013.7mb 62f 57f
10:50am 2.5ft 14s 5s 11 13 mph 1014.1mb 62f 57f
9:50am 2.5ft 13s 5s 13 16 mph 1014mb 62f 57f
8:50am 2.5ft 14s 5s 16 18 mph 1013.9mb 62f 56f
7:50am 3ft 14s 5s 13 18 mph 1013.4mb 62f 56f
6:50am 2.5ft 10s 5s 13 16 mph 1013.3mb 62f 55f
5:50am 2.5ft 14s 5s 13 16 mph 1012.9mb 62f 56f
4:50am 2.5ft 14s 5s 11 13 mph 1012.6mb 62f 56f